Time;durP1;ratioP1;P1;durP2;ratioP2;P2;SDS_P1;SDS_P2;PMS_P1;PMS_P2;Temp;Humidity;BMP_temperature;BMP_pressure;BME280_temperature;BME280_humidity;BME280_pressure;Samples;Min_cycle;Max_cycle;Signal;HPM_P1;HPM_P2
2023/10/16 00:00:50;;;;;;;2.47;0.85;;;7.60;99.90;;;;;;5066032;28;19916;-58
2023/10/16 00:03:17;;;;;;;6.05;0.82;;;7.60;99.90;;;;;;5040907;28;20055;-58
2023/10/16 00:05:49;;;;;;;5.55;1.20;;;7.60;99.90;;;;;;5062359;28;20522;-57
2023/10/16 00:08:18;;;;;;;4.55;1.00;;;7.60;99.90;;;;;;5060367;28;20659;-58
2023/10/16 00:10:57;;;;;;;2.05;0.98;;;7.60;99.90;;;;;;5060911;28;20044;-57
2023/10/16 00:13:26;;;;;;;8.07;0.90;;;7.60;99.90;;;;;;5063107;28;20044;-53
2023/10/16 00:15:54;;;;;;;1.75;0.45;;;7.60;99.90;;;;;;5060505;28;20041;-56
2023/10/16 00:18:23;;;;;;;3.00;0.68;;;7.60;99.90;;;;;;5040333;28;20037;-58
2023/10/16 00:20:55;;;;;;;5.63;0.80;;;7.60;99.90;;;;;;5023920;28;20135;-58
2023/10/16 00:23:24;;;;;;;1.80;0.50;;;7.60;99.90;;;;;;5065208;28;20051;-55
2023/10/16 00:25:50;;;;;;;6.00;0.98;;;7.60;99.90;;;;;;5068708;28;20563;-57
2023/10/16 00:28:22;;;;;;;2.63;0.40;;;7.60;99.90;;;;;;5064357;28;20463;-56
2023/10/16 00:30:50;;;;;;;2.17;0.45;;;7.70;99.90;;;;;;5057188;28;20454;-59
2023/10/16 00:33:16;;;;;;;3.00;0.57;;;7.70;99.90;;;;;;5059829;28;20040;-56
2023/10/16 00:35:43;;;;;;;4.95;0.63;;;7.70;99.90;;;;;;5064089;28;20049;-55
2023/10/16 00:38:13;;;;;;;1.67;0.68;;;7.70;99.90;;;;;;5060601;28;20029;-56
2023/10/16 00:43:28;;;;;;;2.70;0.73;;;7.80;99.90;;;;;;5058993;28;20036;-55
2023/10/16 00:46:00;;;;;;;3.83;0.88;;;7.80;99.90;;;;;;5060559;28;20048;-55
2023/10/16 00:48:27;;;;;;;5.78;0.50;;;7.80;99.90;;;;;;5060022;28;20033;-53
2023/10/16 00:50:54;;;;;;;1.70;0.30;;;7.80;99.90;;;;;;5059161;28;20108;-55
2023/10/16 00:53:23;;;;;;;1.50;0.50;;;7.80;99.90;;;;;;5057867;28;20036;-58
2023/10/16 00:55:51;;;;;;;3.10;0.68;;;7.80;99.90;;;;;;5058119;28;20040;-58
2023/10/16 00:58:17;;;;;;;4.18;0.70;;;7.80;99.90;;;;;;5042681;28;20045;-56
2023/10/16 01:00:46;;;;;;;3.72;0.60;;;7.80;99.90;;;;;;5056749;28;20033;-57
2023/10/16 01:03:20;;;;;;;4.18;0.40;;;7.90;99.90;;;;;;5064610;28;20272;-57
2023/10/16 01:05:49;;;;;;;4.28;0.52;;;7.90;99.90;;;;;;5058979;28;20041;-58
2023/10/16 01:08:17;;;;;;;3.30;0.90;;;7.80;99.90;;;;;;5057823;28;20537;-56
2023/10/16 01:10:48;;;;;;;3.25;0.82;;;7.80;99.90;;;;;;5020161;28;20052;-57
2023/10/16 01:13:16;;;;;;;3.78;0.80;;;7.90;99.90;;;;;;5061425;28;20036;-58
2023/10/16 01:15:50;;;;;;;6.38;0.30;;;7.80;99.90;;;;;;5062655;28;20048;-57
2023/10/16 01:18:17;;;;;;;5.13;0.98;;;7.80;99.90;;;;;;5058761;28;20064;-58
2023/10/16 01:20:48;;;;;;;;;;;7.80;99.90;;;;;;5060295;28;20204;-57
2023/10/16 01:23:22;;;;;;;3.65;0.88;;;7.80;99.90;;;;;;5031810;28;19921;-56
2023/10/16 01:25:49;;;;;;;2.78;0.82;;;7.70;99.90;;;;;;5042485;28;20037;-57
2023/10/16 01:28:16;;;;;;;8.10;1.00;;;7.70;99.90;;;;;;5058661;28;20048;-56
2023/10/16 01:30:49;;;;;;;3.30;0.60;;;7.70;99.90;;;;;;5060172;28;20049;-58
2023/10/16 01:33:16;;;;;;;2.05;0.77;;;7.70;99.90;;;;;;5063013;28;20078;-57
2023/10/16 01:35:46;;;;;;;5.95;1.00;;;7.70;99.90;;;;;;5059115;28;20048;-57
2023/10/16 01:38:16;;;;;;;7.18;0.80;;;7.70;99.90;;;;;;5060534;28;20402;-58
2023/10/16 01:41:26;;;;;;;1.75;0.52;;;7.70;99.90;;;;;;5040390;28;20048;-57
2023/10/16 01:43:45;;;;;;;3.50;1.05;;;7.70;99.90;;;;;;5055977;28;20040;-56
2023/10/16 01:46:12;;;;;;;3.58;0.77;;;7.80;99.90;;;;;;5060511;28;20510;-58
2023/10/16 01:48:44;;;;;;;2.70;0.60;;;7.80;99.90;;;;;;5054966;28;20115;-56
2023/10/16 01:51:18;;;;;;;4.10;1.23;;;7.80;99.90;;;;;;5056265;28;20494;-57
2023/10/16 01:53:44;;;;;;;3.05;0.80;;;7.80;99.90;;;;;;5044792;28;20056;-57
2023/10/16 01:56:12;;;;;;;2.70;0.50;;;7.90;99.90;;;;;;5061480;28;20495;-57
2023/10/16 01:58:49;;;;;;;4.78;1.23;;;7.90;99.90;;;;;;5057190;28;20298;-57
2023/10/16 02:01:17;;;;;;;;;;;7.90;99.90;;;;;;5045966;28;20040;-58
2023/10/16 02:03:44;;;;;;;6.43;0.68;;;7.90;99.90;;;;;;5043934;28;19927;-58
2023/10/16 02:06:20;;;;;;;1.73;0.47;;;7.90;99.90;;;;;;5059773;28;20068;-57
2023/10/16 02:08:48;;;;;;;4.72;1.02;;;7.90;99.90;;;;;;5039741;28;20036;-58
2023/10/16 02:11:16;;;;;;;1.60;0.20;;;8.00;99.90;;;;;;5059025;28;20044;-58
2023/10/16 02:13:42;;;;;;;2.40;0.50;;;8.00;99.90;;;;;;5058826;28;20491;-57
2023/10/16 02:16:10;;;;;;;4.28;0.50;;;8.10;99.90;;;;;;5058915;28;20053;-57
2023/10/16 02:18:45;;;;;;;2.22;0.60;;;8.00;99.90;;;;;;5058826;28;20053;-58
2023/10/16 02:21:12;;;;;;;3.55;0.60;;;8.10;99.90;;;;;;5061208;28;20044;-57
2023/10/16 02:23:38;;;;;;;5.97;0.90;;;8.10;99.90;;;;;;5061066;28;20506;-58
2023/10/16 02:26:06;;;;;;;4.57;1.05;;;8.10;99.90;;;;;;5061558;28;20036;-56
2023/10/16 02:28:35;;;;;;;2.58;1.02;;;8.10;99.90;;;;;;5058458;28;20037;-58
2023/10/16 02:31:14;;;;;;;5.72;1.33;;;8.10;99.90;;;;;;5056974;28;20406;-59
2023/10/16 02:33:44;;;;;;;4.28;0.60;;;8.10;99.90;;;;;;5055757;28;20414;-57
2023/10/16 02:36:11;;;;;;;3.30;0.70;;;8.00;99.90;;;;;;5064141;28;20044;-59
2023/10/16 02:38:36;;;;;;;6.57;1.02;;;8.10;99.90;;;;;;5059781;28;20068;-58
2023/10/16 02:41:03;;;;;;;2.00;0.93;;;8.00;99.90;;;;;;5066618;28;20070;-57
2023/10/16 02:43:30;;;;;;;3.47;0.80;;;8.00;99.90;;;;;;5065267;28;20032;-57
2023/10/16 02:45:56;;;;;;;3.20;0.75;;;8.00;99.90;;;;;;5064174;28;20487;-58
2023/10/16 02:48:23;;;;;;;6.18;0.88;;;8.00;99.90;;;;;;5060832;28;20556;-57
2023/10/16 02:50:54;;;;;;;5.88;1.17;;;8.00;99.90;;;;;;5060341;28;20724;-57
2023/10/16 02:53:25;;;;;;;3.58;1.40;;;8.00;99.90;;;;;;5063514;28;20055;-58
2023/10/16 02:56:08;;;;;;;6.57;1.38;;;8.00;99.90;;;;;;5043354;28;20158;-57
2023/10/16 02:58:54;;;;;;;4.07;1.05;;;8.00;99.90;;;;;;5060685;28;20040;-58
2023/10/16 03:01:21;;;;;;;3.50;0.88;;;7.90;99.90;;;;;;5062475;28;20052;-58
2023/10/16 03:03:47;;;;;;;5.63;1.15;;;7.90;99.90;;;;;;5063001;28;20047;-57
2023/10/16 03:06:14;;;;;;;3.35;1.17;;;7.90;99.90;;;;;;5066391;28;20028;-59
2023/10/16 03:08:48;;;;;;;5.53;1.17;;;7.80;99.90;;;;;;5069125;28;20037;-55
2023/10/16 03:11:14;;;;;;;4.85;0.70;;;7.80;99.90;;;;;;5067924;28;20331;-53
2023/10/16 03:13:40;;;;;;;5.80;1.38;;;7.80;99.90;;;;;;5062198;28;20041;-56
2023/10/16 03:16:16;;;;;;;3.08;1.45;;;7.80;99.90;;;;;;5043708;28;20080;-53
2023/10/16 03:18:43;;;;;;;9.10;1.95;;;7.80;99.90;;;;;;5067197;28;20126;-55
2023/10/16 03:23:42;;;;;;;5.85;1.52;;;7.80;99.90;;;;;;5062021;28;20367;-57
2023/10/16 03:26:11;;;;;;;2.80;1.40;;;7.80;99.90;;;;;;5063652;28;20040;-58
2023/10/16 03:28:37;;;;;;;4.50;1.63;;;7.80;99.90;;;;;;5061998;28;20089;-58
2023/10/16 03:31:03;;;;;;;4.72;1.13;;;7.80;99.90;;;;;;5061723;28;20040;-58
2023/10/16 03:33:29;;;;;;;;;;;7.80;99.90;;;;;;5061203;28;20044;-58
2023/10/16 03:35:57;;;;;;;6.18;1.40;;;7.80;99.90;;;;;;5062269;28;19923;-59
2023/10/16 03:38:28;;;;;;;4.95;1.73;;;7.80;99.90;;;;;;5063302;28;20396;-58
2023/10/16 03:40:56;;;;;;;9.10;2.05;;;7.70;99.90;;;;;;5060989;28;20040;-58
2023/10/16 03:43:22;;;;;;;5.30;1.98;;;7.70;99.90;;;;;;5059258;28;20051;-58
2023/10/16 03:45:49;;;;;;;5.57;1.08;;;7.70;99.90;;;;;;5061059;28;20049;-58
2023/10/16 03:48:16;;;;;;;4.95;1.67;;;7.60;99.90;;;;;;5065906;28;20045;-58
2023/10/16 03:50:43;;;;;;;4.25;1.52;;;7.60;99.90;;;;;;5061335;28;20111;-58
2023/10/16 03:53:09;;;;;;;;;;;7.60;99.90;;;;;;5060115;28;20419;-56
2023/10/16 03:55:46;;;;;;;5.03;1.65;;;7.60;99.90;;;;;;5060350;28;20371;-56
2023/10/16 03:58:12;;;;;;;2.30;1.20;;;7.50;99.90;;;;;;5060193;28;20332;-57
2023/10/16 04:00:50;;;;;;;4.30;1.70;;;7.50;99.90;;;;;;5062519;28;20111;-57
2023/10/16 04:03:17;;;;;;;5.15;1.73;;;7.50;99.90;;;;;;5058684;28;20037;-54
2023/10/16 04:05:45;;;;;;;7.20;1.60;;;7.60;99.90;;;;;;5060132;28;20056;-57
2023/10/16 04:08:15;;;;;;;4.38;1.25;;;7.60;99.90;;;;;;5062359;28;20067;-58
2023/10/16 04:10:47;;;;;;;7.15;1.92;;;7.60;99.90;;;;;;5059310;28;20033;-58
2023/10/16 04:13:15;;;;;;;4.70;1.95;;;7.60;99.90;;;;;;5046814;28;20050;-58
2023/10/16 04:20:56;;;;;;;4.85;1.52;;;7.70;99.90;;;;;;5058078;28;20045;-58
2023/10/16 04:23:47;;;;;;;8.63;1.85;;;7.70;99.90;;;;;;5060646;28;20064;-58
2023/10/16 04:32:07;;;;;;;4.40;1.30;;;7.70;99.90;;;;;;5064176;28;20041;-57
2023/10/16 04:34:34;;;;;;;5.60;1.73;;;7.70;99.90;;;;;;5041816;28;20407;-56
2023/10/16 04:47:56;;;;;;;4.15;1.00;;;7.80;99.90;;;;;;5067628;28;20040;-57
2023/10/16 05:03:44;;;;;;;5.85;1.38;;;8.00;99.90;;;;;;5063408;28;20052;-59
2023/10/16 05:14:19;;;;;;;3.17;1.35;;;8.00;99.90;;;;;;5060227;28;20515;-58
2023/10/16 06:14:34;;;;;;;4.75;0.98;;;7.80;99.90;;;;;;5057701;28;20015;-58
2023/10/16 06:17:00;;;;;;;2.95;1.20;;;7.80;99.90;;;;;;5063682;28;20041;-58
2023/10/16 06:19:26;;;;;;;6.00;1.25;;;7.80;99.90;;;;;;5064851;28;20040;-59
2023/10/16 06:21:59;;;;;;;4.82;1.50;;;7.80;99.90;;;;;;5064758;28;20059;-56
2023/10/16 06:24:25;;;;;;;4.13;1.08;;;7.90;99.90;;;;;;5064897;28;20116;-59
2023/10/16 06:27:08;;;;;;;4.57;1.05;;;8.00;99.90;;;;;;5064097;28;20041;-59
2023/10/16 06:29:35;;;;;;;2.20;1.02;;;8.20;99.90;;;;;;5065458;28;20075;-58
2023/10/16 06:32:07;;;;;;;3.90;1.15;;;8.20;99.90;;;;;;5067668;28;20041;-58
2023/10/16 06:34:37;;;;;;;6.75;1.30;;;8.30;99.90;;;;;;5040451;28;20049;-58
2023/10/16 06:37:06;;;;;;;4.53;1.25;;;8.40;99.90;;;;;;5043676;28;20045;-59
2023/10/16 06:39:41;;;;;;;3.60;0.85;;;8.70;99.90;;;;;;5065214;28;20040;-59
2023/10/16 06:42:14;;;;;;;3.05;1.17;;;9.10;99.90;;;;;;5064202;28;20144;-59
2023/10/16 06:44:42;;;;;;;3.30;0.70;;;9.50;99.90;;;;;;5062362;28;20486;-60
2023/10/16 06:47:12;;;;;;;3.58;1.00;;;10.10;99.90;;;;;;5065950;28;20084;-59
2023/10/16 06:49:38;;;;;;;4.10;0.65;;;10.40;99.90;;;;;;5062498;28;20044;-59
2023/10/16 06:52:06;;;;;;;3.47;0.80;;;10.60;99.90;;;;;;5043510;28;20041;-60
2023/10/16 06:54:37;;;;;;;4.72;1.42;;;10.70;99.90;;;;;;5061165;28;20453;-60
2023/10/16 06:57:23;;;;;;;2.40;0.90;;;10.70;99.90;;;;;;5064719;28;20051;-57
2023/10/16 06:59:50;;;;;;;4.40;0.65;;;10.70;99.90;;;;;;5046556;28;20048;-58
2023/10/16 07:02:19;;;;;;;3.45;1.17;;;10.80;99.90;;;;;;5044810;28;20095;-58
2023/10/16 07:04:46;;;;;;;2.67;0.95;;;11.00;99.90;;;;;;5065237;28;20025;-57
2023/10/16 07:07:15;;;;;;;3.72;0.65;;;11.30;99.90;;;;;;5063757;28;20040;-58
2023/10/16 07:09:48;;;;;;;2.90;0.70;;;11.50;99.90;;;;;;5064681;28;20048;-56
2023/10/16 07:12:18;;;;;;;2.38;0.88;;;11.80;99.90;;;;;;5062345;28;20380;-58
2023/10/16 07:14:55;;;;;;;2.65;0.73;;;11.90;99.90;;;;;;5064217;28;20414;-57
2023/10/16 07:17:27;;;;;;;4.68;0.70;;;11.90;99.90;;;;;;5059649;28;20041;-57
2023/10/16 07:20:17;;;;;;;2.72;0.85;;;11.80;99.90;;;;;;5065640;28;20052;-57
2023/10/16 07:22:39;;;;;;;1.42;0.70;;;11.70;99.90;;;;;;5063893;28;20040;-56
2023/10/16 07:25:25;;;;;;;3.07;0.73;;;11.60;99.90;;;;;;5060805;28;20028;-57
2023/10/16 07:27:58;;;;;;;3.72;1.20;;;11.50;99.90;;;;;;5063160;28;20049;-57
2023/10/16 07:30:27;;;;;;;7.25;0.70;;;11.40;99.90;;;;;;5057614;28;20044;-57
2023/10/16 07:32:54;;;;;;;3.22;0.82;;;11.20;99.90;;;;;;5060327;28;20415;-58
2023/10/16 07:35:23;;;;;;;4.70;0.90;;;11.10;99.90;;;;;;5056427;28;20045;-58
2023/10/16 07:37:53;;;;;;;5.75;0.70;;;10.90;99.90;;;;;;5044959;28;20334;-55
2023/10/16 07:40:25;;;;;;;1.83;0.93;;;10.90;99.90;;;;;;5059532;28;20068;-56
2023/10/16 07:42:52;;;;;;;2.10;0.75;;;10.80;99.90;;;;;;5061000;28;20519;-58
2023/10/16 07:45:21;;;;;;;7.97;1.23;;;10.70;99.90;;;;;;5056200;28;20094;-57
2023/10/16 07:47:48;;;;;;;3.30;0.80;;;10.70;99.90;;;;;;5059705;28;20032;-60
2023/10/16 07:50:19;;;;;;;4.88;1.00;;;10.60;99.90;;;;;;5043785;28;20112;-57
2023/10/16 07:52:44;;;;;;;2.55;0.85;;;10.60;99.90;;;;;;5044871;28;20049;-58
2023/10/16 07:55:19;;;;;;;4.43;1.00;;;10.60;99.90;;;;;;5061416;28;20041;-57
2023/10/16 07:57:47;;;;;;;7.20;2.15;;;10.50;99.90;;;;;;5058193;28;20124;-58
2023/10/16 08:00:14;;;;;;;3.70;0.80;;;10.40;99.90;;;;;;5060933;28;20033;-57
2023/10/16 08:02:45;;;;;;;3.83;0.60;;;10.40;99.90;;;;;;5040203;28;20116;-57
2023/10/16 08:05:16;;;;;;;3.63;0.95;;;10.40;99.90;;;;;;5061426;28;20048;-58
2023/10/16 08:07:47;;;;;;;3.50;0.95;;;10.40;99.90;;;;;;5058490;28;20166;-58
2023/10/16 08:10:28;;;;;;;7.75;1.35;;;10.40;99.90;;;;;;5058482;28;20039;-57
2023/10/16 08:12:54;;;;;;;2.83;0.98;;;10.40;99.90;;;;;;5040563;28;20309;-58
2023/10/16 08:15:21;;;;;;;2.67;0.95;;;10.40;99.90;;;;;;5059413;28;20550;-58
2023/10/16 08:17:47;;;;;;;3.13;0.80;;;10.50;99.90;;;;;;5041687;28;20484;-57
2023/10/16 08:20:17;;;;;;;11.77;1.23;;;10.50;99.90;;;;;;5055460;28;20094;-58
2023/10/16 08:22:47;;;;;;;5.70;1.15;;;10.60;99.90;;;;;;5055828;28;20044;-57
2023/10/16 08:25:31;;;;;;;3.38;1.20;;;10.70;99.90;;;;;;5055491;28;20410;-54
2023/10/16 08:28:01;;;;;;;1.30;0.70;;;10.80;99.90;;;;;;5056401;28;20036;-58
2023/10/16 08:33:11;;;;;;;5.05;0.80;;;11.10;99.90;;;;;;5060499;28;20056;-58
2023/10/16 08:35:41;;;;;;;;;;;11.20;99.90;;;;;;5056898;28;20040;-58
2023/10/16 08:38:13;;;;;;;3.30;1.00;;;11.30;99.90;;;;;;5057183;28;19921;-58
2023/10/16 08:40:46;;;;;;;2.25;0.43;;;11.40;99.90;;;;;;5056410;28;20040;-57
2023/10/16 08:43:17;;;;;;;2.75;0.60;;;11.50;99.90;;;;;;5060824;28;20515;-58
2023/10/16 08:45:48;;;;;;;3.13;0.73;;;11.60;99.90;;;;;;5039239;28;20057;-57
2023/10/16 08:48:17;;;;;;;4.30;0.60;;;11.60;99.90;;;;;;5056982;28;20581;-58
2023/10/16 08:50:52;;;;;;;4.28;0.60;;;11.70;99.90;;;;;;5056794;28;20425;-57
2023/10/16 08:53:31;;;;;;;4.32;0.90;;;11.80;99.90;;;;;;5054995;28;20469;-57
2023/10/16 08:56:07;;;;;;;5.80;0.90;;;11.80;99.90;;;;;;5057753;28;20119;-59
2023/10/16 08:58:46;;;;;;;2.05;0.47;;;11.90;99.90;;;;;;5057388;28;20567;-58
2023/10/16 09:01:16;;;;;;;1.52;0.60;;;12.00;99.90;;;;;;5052189;28;20634;-58
2023/10/16 09:03:50;;;;;;;7.25;0.80;;;12.00;99.90;;;;;;5057405;28;20037;-57
2023/10/16 09:06:22;;;;;;;2.83;0.43;;;12.10;99.90;;;;;;5056723;28;20032;-57
2023/10/16 09:08:54;;;;;;;3.88;0.68;;;12.20;99.90;;;;;;5040529;28;20094;-58
2023/10/16 09:11:20;;;;;;;5.60;0.85;;;12.40;99.90;;;;;;5058008;28;20047;-58
2023/10/16 09:13:52;;;;;;;1.73;0.40;;;12.60;99.90;;;;;;5056925;28;20033;-57
2023/10/16 09:16:23;;;;;;;2.55;0.50;;;12.80;99.90;;;;;;5050499;28;20495;-57
2023/10/16 09:18:52;;;;;;;3.13;0.73;;;13.10;99.90;;;;;;5054158;28;20059;-58
2023/10/16 09:21:24;;;;;;;2.53;0.55;;;13.20;99.90;;;;;;5059682;28;20510;-57
2023/10/16 09:23:53;;;;;;;3.50;0.40;;;13.30;99.90;;;;;;5055495;28;20036;-56
2023/10/16 09:26:32;;;;;;;2.53;0.82;;;13.40;99.90;;;;;;5058148;28;20128;-58
2023/10/16 09:29:14;;;;;;;3.42;0.43;;;13.60;99.90;;;;;;5057515;28;20036;-58
2023/10/16 09:31:47;;;;;;;3.20;0.30;;;13.70;99.90;;;;;;5055218;28;20033;-58
2023/10/16 09:34:25;;;;;;;3.15;0.50;;;13.70;99.90;;;;;;5060956;28;20066;-58
2023/10/16 09:39:48;;;;;;;1.77;0.57;;;13.80;99.90;;;;;;5020006;28;20038;-56
2023/10/16 09:42:15;;;;;;;2.15;0.30;;;13.90;99.90;;;;;;5020266;28;20116;-57
2023/10/16 09:44:45;;;;;;;3.63;0.40;;;13.90;99.90;;;;;;5019487;28;20559;-56
2023/10/16 09:47:26;;;;;;;5.03;0.68;;;14.00;99.90;;;;;;5021168;28;20045;-53
2023/10/16 09:49:54;;;;;;;3.15;0.50;;;14.00;99.90;;;;;;5003618;28;20056;-54
2023/10/16 09:52:20;;;;;;;2.83;0.40;;;14.00;99.90;;;;;;5020768;28;20415;-56
2023/10/16 09:54:48;;;;;;;2.05;0.50;;;13.90;99.90;;;;;;5019835;28;20127;-55
2023/10/16 09:57:19;;;;;;;5.95;0.50;;;13.80;99.90;;;;;;5018250;28;20049;-58
2023/10/16 09:59:45;;;;;;;2.00;0.52;;;13.70;99.90;;;;;;5020580;28;20696;-57
2023/10/16 10:02:18;;;;;;;4.72;0.65;;;13.70;99.90;;;;;;5026175;28;20133;-57
2023/10/16 10:04:59;;;;;;;5.50;0.70;;;13.80;99.90;;;;;;5002774;28;20387;-57
2023/10/16 10:07:38;;;;;;;2.83;0.52;;;13.80;99.90;;;;;;5020688;28;20523;-58
2023/10/16 10:12:56;;;;;;;3.72;0.55;;;14.00;99.90;;;;;;5019943;28;20419;-56
2023/10/16 10:15:28;;;;;;;3.75;0.35;;;14.10;99.90;;;;;;5026382;28;20060;-56
2023/10/16 10:18:02;;;;;;;6.80;0.60;;;14.10;99.90;;;;;;5058678;28;20375;-57
2023/10/16 10:20:39;;;;;;;7.03;0.63;;;14.20;99.90;;;;;;5045308;28;20044;-56
2023/10/16 10:23:06;;;;;;;;;;;14.20;99.90;;;;;;5060060;28;20048;-57
2023/10/16 10:25:37;;;;;;;;;;;14.20;99.90;;;;;;5058978;28;20285;-56
2023/10/16 10:28:15;;;;;;;2.45;0.43;;;14.30;99.90;;;;;;5057509;28;20011;-56
2023/10/16 10:30:44;;;;;;;3.22;0.60;;;14.30;99.90;;;;;;5056956;28;20509;-55
2023/10/16 10:33:11;;;;;;;6.53;0.47;;;14.50;99.90;;;;;;5057054;28;20064;-57
2023/10/16 10:35:43;;;;;;;4.30;0.55;;;14.60;99.90;;;;;;5061559;28;20123;-55
2023/10/16 10:38:20;;;;;;;4.53;0.40;;;14.60;99.90;;;;;;5055951;28;20461;-55
2023/10/16 10:41:08;;;;;;;5.78;0.70;;;14.70;99.90;;;;;;5055916;28;20077;-58
2023/10/16 10:43:48;;;;;;;5.00;0.40;;;14.80;99.90;;;;;;5057568;28;20106;-56
2023/10/16 10:46:34;;;;;;;4.60;0.52;;;14.90;99.90;;;;;;5055291;28;20126;-55
2023/10/16 10:49:02;;;;;;;3.50;0.77;;;15.10;99.90;;;;;;5056647;28;20043;-55
2023/10/16 10:51:34;;;;;;;5.18;0.47;;;15.20;99.90;;;;;;5057595;28;20127;-55
2023/10/16 10:54:03;;;;;;;3.20;1.02;;;15.30;99.90;;;;;;5061464;28;20139;-56
2023/10/16 10:56:40;;;;;;;7.70;0.52;;;15.40;99.90;;;;;;5060021;28;20082;-56
2023/10/16 10:59:09;;;;;;;5.55;0.40;;;15.50;99.90;;;;;;5038612;28;20037;-58
2023/10/16 11:01:44;;;;;;;3.75;0.60;;;15.60;99.90;;;;;;5056031;28;20044;-58
2023/10/16 11:04:15;;;;;;;4.28;0.43;;;15.70;99.90;;;;;;5053734;28;20178;-58
2023/10/16 11:06:52;;;;;;;6.22;0.93;;;15.70;99.90;;;;;;5062914;28;20495;-57
2023/10/16 11:09:21;;;;;;;4.85;0.30;;;15.80;99.90;;;;;;5053797;28;20044;-57
2023/10/16 11:11:51;;;;;;;7.20;0.47;;;15.80;99.90;;;;;;5057955;28;20033;-58
2023/10/16 11:14:17;;;;;;;7.40;0.85;;;15.90;99.90;;;;;;5063225;28;20044;-57
2023/10/16 11:16:48;;;;;;;4.72;0.30;;;15.90;99.90;;;;;;5062834;28;20039;-58
2023/10/16 11:19:23;;;;;;;2.88;0.60;;;16.00;99.90;;;;;;5050170;28;20029;-57
2023/10/16 11:21:49;;;;;;;1.50;0.30;;;15.90;99.90;;;;;;5064713;28;20060;-57
2023/10/16 11:24:15;;;;;;;4.65;0.40;;;15.80;99.90;;;;;;5061980;28;20467;-55
2023/10/16 11:26:45;;;;;;;7.63;0.35;;;15.70;99.90;;;;;;5061827;28;20033;-58
2023/10/16 11:29:12;;;;;;;5.68;0.45;;;15.50;99.90;;;;;;5058759;28;20033;-56
2023/10/16 11:31:41;;;;;;;6.07;0.55;;;15.40;99.90;;;;;;5057605;28;20043;-58
2023/10/16 11:34:12;;;;;;;4.65;0.40;;;15.20;99.90;;;;;;5049444;28;20222;-58
2023/10/16 11:36:39;;;;;;;4.68;0.30;;;15.00;99.90;;;;;;5062761;28;20044;-57
2023/10/16 11:39:10;;;;;;;1.95;0.30;;;14.80;99.90;;;;;;5059501;28;20046;-59
2023/10/16 11:41:36;;;;;;;6.88;0.40;;;14.60;99.90;;;;;;5051170;28;20081;-57
2023/10/16 11:44:13;;;;;;;7.22;0.65;;;14.50;99.90;;;;;;5059675;28;20036;-58
2023/10/16 11:46:51;;;;;;;3.00;0.40;;;14.30;99.90;;;;;;5056729;28;20082;-58
2023/10/16 11:51:53;;;;;;;1.50;0.43;;;14.10;99.90;;;;;;5054029;28;20511;-58
2023/10/16 11:54:20;;;;;;;4.30;0.40;;;14.10;99.90;;;;;;5061453;28;20533;-58
2023/10/16 11:56:52;;;;;;;4.38;0.40;;;14.00;99.90;;;;;;5062575;28;21556;-57
2023/10/16 11:59:19;;;;;;;2.10;0.43;;;14.00;99.90;;;;;;5057833;28;20040;-58
2023/10/16 12:01:45;;;;;;;0.77;0.20;;;13.90;99.90;;;;;;5012748;28;20044;-59
2023/10/16 12:04:12;;;;;;;6.75;0.30;;;13.90;99.90;;;;;;5044373;28;20503;-57
2023/10/16 12:06:38;;;;;;;3.40;0.50;;;13.90;99.90;;;;;;5046474;28;20044;-61
2023/10/16 12:09:10;;;;;;;6.72;0.50;;;14.00;99.90;;;;;;5054967;28;20028;-57
2023/10/16 12:11:42;;;;;;;3.35;0.25;;;14.00;99.90;;;;;;5028525;28;20036;-56
2023/10/16 12:14:13;;;;;;;3.05;0.30;;;14.10;99.90;;;;;;5060318;28;20041;-58
2023/10/16 12:16:45;;;;;;;1.35;0.40;;;14.20;99.90;;;;;;5047150;28;20072;-55
2023/10/16 12:19:15;;;;;;;4.20;0.43;;;14.20;99.90;;;;;;5058204;28;20395;-58
2023/10/16 12:21:52;;;;;;;2.15;0.30;;;14.30;99.90;;;;;;5054312;28;20494;-56
2023/10/16 12:24:18;;;;;;;2.55;0.38;;;14.40;99.90;;;;;;5058620;28;20049;-57
2023/10/16 12:26:45;;;;;;;1.52;0.20;;;14.50;99.90;;;;;;5034282;28;20036;-58
2023/10/16 12:29:11;;;;;;;5.15;0.30;;;14.50;99.90;;;;;;5027452;28;20268;-56
2023/10/16 12:31:40;;;;;;;2.55;0.30;;;14.60;99.90;;;;;;5056988;28;20048;-56
2023/10/16 12:34:10;;;;;;;3.75;0.57;;;14.70;99.90;;;;;;5047021;28;20025;-58
2023/10/16 12:36:42;;;;;;;2.92;0.20;;;14.80;99.90;;;;;;5024885;28;20043;-59
2023/10/16 12:39:16;;;;;;;3.42;0.30;;;14.90;99.90;;;;;;5045764;28;20119;-58
2023/10/16 12:41:45;;;;;;;1.48;0.40;;;15.00;99.90;;;;;;5060208;28;20416;-58
2023/10/16 12:44:11;;;;;;;1.80;0.32;;;15.10;99.90;;;;;;5061253;28;20543;-58
2023/10/16 12:46:37;;;;;;;3.17;0.38;;;15.20;99.90;;;;;;5049703;28;20045;-57
2023/10/16 12:49:06;;;;;;;5.55;0.40;;;15.30;99.90;;;;;;5030378;28;20376;-57
2023/10/16 12:51:34;;;;;;;8.02;0.40;;;15.40;99.90;;;;;;5031764;28;20028;-57
2023/10/16 12:54:03;;;;;;;1.67;0.20;;;15.40;99.90;;;;;;5032251;28;20048;-59
2023/10/16 12:56:32;;;;;;;3.63;0.40;;;15.40;99.90;;;;;;5051668;28;20045;-56
2023/10/16 12:59:02;;;;;;;3.72;0.38;;;15.50;99.90;;;;;;5055147;28;20078;-57
2023/10/16 13:01:27;;;;;;;3.30;0.30;;;15.60;99.90;;;;;;5047826;28;20044;-57
2023/10/16 13:04:36;;;;;;;2.45;0.20;;;15.60;99.90;;;;;;5058913;28;20429;-57
2023/10/16 13:06:45;;;;;;;2.72;0.30;;;15.60;99.90;;;;;;5055572;28;20055;-58
2023/10/16 13:09:15;;;;;;;3.60;0.35;;;15.60;99.90;;;;;;5055671;28;20124;-56
2023/10/16 13:11:41;;;;;;;2.55;0.45;;;15.70;99.90;;;;;;5055944;28;20044;-56
2023/10/16 13:14:07;;;;;;;;;;;15.70;99.90;;;;;;5058426;28;20471;-56
2023/10/16 13:16:33;;;;;;;1.60;0.28;;;15.80;99.90;;;;;;5057974;28;19967;-58
2023/10/16 13:18:59;;;;;;;4.18;0.30;;;15.80;99.90;;;;;;5056691;28;20124;-57
2023/10/16 13:21:35;;;;;;;1.13;0.20;;;15.90;99.90;;;;;;5058969;28;20070;-57
2023/10/16 13:24:03;;;;;;;1.73;0.25;;;15.80;99.90;;;;;;5055668;28;20053;-58
2023/10/16 13:26:31;;;;;;;4.45;0.30;;;15.70;99.90;;;;;;5060067;28;20562;-58
2023/10/16 13:28:57;;;;;;;3.72;0.20;;;15.80;99.90;;;;;;5057509;28;20063;-58
2023/10/16 13:31:23;;;;;;;2.80;0.30;;;15.80;99.90;;;;;;5057076;28;20503;-58
2023/10/16 13:33:50;;;;;;;2.97;0.30;;;15.90;99.90;;;;;;5056977;28;20044;-58
2023/10/16 13:36:17;;;;;;;8.70;0.73;;;16.00;99.90;;;;;;5056620;28;20091;-56
2023/10/16 13:38:44;;;;;;;3.35;0.50;;;16.00;99.90;;;;;;5061257;28;20052;-57
2023/10/16 13:41:20;;;;;;;2.05;0.30;;;15.90;99.90;;;;;;5063596;28;20049;-57
2023/10/16 13:43:46;;;;;;;5.10;0.57;;;15.80;99.90;;;;;;5058347;28;20044;-57
2023/10/16 13:46:14;;;;;;;2.35;0.30;;;15.70;99.90;;;;;;5056606;28;20048;-56
2023/10/16 13:48:45;;;;;;;7.43;0.52;;;15.60;99.90;;;;;;5055748;28;20454;-56
2023/10/16 13:51:16;;;;;;;2.10;0.38;;;15.60;99.90;;;;;;5054997;28;20503;-56
2023/10/16 13:53:43;;;;;;;3.20;0.20;;;15.50;99.90;;;;;;5053997;28;20068;-56
2023/10/16 13:56:11;;;;;;;5.85;0.50;;;15.50;99.90;;;;;;5055763;28;20495;-53
2023/10/16 13:58:36;;;;;;;10.70;0.73;;;15.50;99.90;;;;;;5057880;28;20037;-58
2023/10/16 14:01:02;;;;;;;3.45;0.50;;;15.30;99.90;;;;;;5054212;28;20334;-58
2023/10/16 14:03:28;;;;;;;3.40;0.30;;;15.20;99.90;;;;;;5045773;28;20343;-56
2023/10/16 14:05:54;;;;;;;4.38;0.22;;;15.10;99.90;;;;;;5054472;28;20407;-58
2023/10/16 14:08:30;;;;;;;6.97;0.40;;;15.10;99.90;;;;;;5057226;28;20033;-58
2023/10/16 14:11:00;;;;;;;3.33;0.30;;;15.10;99.90;;;;;;5058661;28;20116;-57
2023/10/16 14:13:32;;;;;;;7.10;0.32;;;15.00;99.90;;;;;;5057754;28;20410;-56
2023/10/16 14:16:41;;;;;;;2.65;0.35;;;15.00;99.90;;;;;;5059099;28;20060;-56
2023/10/16 14:18:47;;;;;;;2.92;0.22;;;14.90;99.90;;;;;;5049506;28;20036;-58
2023/10/16 14:21:14;;;;;;;5.03;0.50;;;14.80;99.90;;;;;;5055659;28;20116;-58
2023/10/16 14:23:40;;;;;;;2.65;0.30;;;14.80;99.90;;;;;;5058699;28;20131;-57
2023/10/16 14:26:11;;;;;;;3.83;0.32;;;14.70;99.90;;;;;;5053278;28;20279;-57
2023/10/16 14:28:43;;;;;;;2.20;0.60;;;14.70;99.90;;;;;;5059225;28;20126;-58
2023/10/16 14:31:09;;;;;;;5.78;0.40;;;14.70;99.90;;;;;;5057717;28;20040;-58
2023/10/16 14:33:39;;;;;;;4.38;0.30;;;14.60;99.90;;;;;;5055592;28;20050;-58
2023/10/16 14:36:08;;;;;;;3.35;0.47;;;14.60;99.90;;;;;;5056076;28;20040;-57
2023/10/16 14:38:33;;;;;;;1.52;0.50;;;14.50;99.90;;;;;;5027102;28;20131;-58
2023/10/16 14:41:04;;;;;;;4.20;0.47;;;14.50;99.90;;;;;;5045671;28;20222;-58
2023/10/16 14:43:30;;;;;;;2.15;0.50;;;14.50;99.90;;;;;;5032105;28;20048;-58
2023/10/16 14:45:58;;;;;;;1.33;0.40;;;14.50;99.90;;;;;;5059129;28;20029;-58
2023/10/16 14:48:24;;;;;;;5.10;0.40;;;14.50;99.90;;;;;;5061621;28;20426;-58
2023/10/16 14:50:53;;;;;;;5.10;0.38;;;14.40;99.90;;;;;;5061112;28;20028;-58
2023/10/16 14:53:25;;;;;;;2.72;0.40;;;14.40;99.90;;;;;;5062593;28;20050;-57
2023/10/16 14:55:50;;;;;;;5.03;0.40;;;14.40;99.90;;;;;;5054053;28;20158;-56
2023/10/16 14:58:18;;;;;;;5.20;0.52;;;14.30;99.90;;;;;;5056476;28;20045;-57
2023/10/16 15:00:45;;;;;;;2.88;0.50;;;14.30;99.90;;;;;;5057985;28;20076;-58
2023/10/16 15:03:13;;;;;;;4.00;0.60;;;14.30;99.90;;;;;;5060821;28;20048;-58
2023/10/16 15:05:43;;;;;;;6.03;0.60;;;14.30;99.90;;;;;;5037222;28;20029;-58